createdAt,value
2022-10-17T00:01:14.805Z,102729.50
2022-10-17T00:03:43.307Z,102730.48
2022-10-17T00:06:14.826Z,102735.60
2022-10-17T00:08:44.772Z,102734.10
2022-10-17T00:11:19.478Z,102733.96
2022-10-17T00:13:49.944Z,102732.40
2022-10-17T00:16:27.254Z,102731.86
2022-10-17T00:18:56.252Z,102733.64
2022-10-17T00:21:25.576Z,102736.35
2022-10-17T00:23:54.631Z,102732.94
2022-10-17T00:26:23.517Z,102727.77
2022-10-17T00:28:53.567Z,102726.42
2022-10-17T00:31:24.015Z,102723.16
2022-10-17T00:33:53.258Z,102723.11
2022-10-17T00:36:24.855Z,102721.80
2022-10-17T00:38:59.346Z,102717.94
2022-10-17T00:41:31.499Z,102717.95
2022-10-17T00:44:28.446Z,102720.10
2022-10-17T00:46:59.536Z,102717.30
2022-10-17T00:49:30.573Z,102718.89
2022-10-17T00:52:06.541Z,102719.83
2022-10-17T00:54:41.218Z,102719.94
2022-10-17T00:57:10.212Z,102719.44
2022-10-17T00:59:42.329Z,102720.55
2022-10-17T01:02:14.542Z,102720.67
2022-10-17T01:04:46.916Z,102721.74
2022-10-17T01:07:15.476Z,102724.86
2022-10-17T01:09:46.007Z,102726.67
2022-10-17T01:12:22.795Z,102726.30
2022-10-17T01:15:09.479Z,102728.47
2022-10-17T01:17:48.227Z,102728.02
2022-10-17T01:20:39.916Z,102726.73
2022-10-17T01:23:33.214Z,102724.88
2022-10-17T01:26:11.202Z,102722.52
2022-10-17T01:29:07.177Z,102719.42
2022-10-17T01:31:49.314Z,102720.59
2022-10-17T01:34:55.390Z,102722.25
2022-10-17T01:37:40.015Z,102724.60
2022-10-17T01:40:08.932Z,102723.94
2022-10-17T01:42:52.448Z,102724.45
2022-10-17T01:45:35.696Z,102726.03
2022-10-17T01:48:12.256Z,102721.70
2022-10-17T01:50:52.934Z,102719.98
2022-10-17T01:53:35.031Z,102722.40
2022-10-17T01:56:07.593Z,102725.16
2022-10-17T01:58:49.624Z,102724.11
2022-10-17T02:01:21.409Z,102724.94
2022-10-17T02:03:52.215Z,102725.92
2022-10-17T02:06:20.734Z,102729.87
2022-10-17T02:08:51.491Z,102731.23
2022-10-17T02:11:26.402Z,102733.62
2022-10-17T02:14:25.269Z,102737.89
2022-10-17T02:16:53.698Z,102738.66
2022-10-17T02:20:03.870Z,102738.93
2022-10-17T02:22:42.223Z,102741.39
2022-10-17T02:25:34.903Z,102745.50
2022-10-17T02:28:15.839Z,102748.57
2022-10-17T02:31:07.334Z,102752.14
2022-10-17T02:34:31.392Z,102754.49
2022-10-17T02:37:02.310Z,102755.93
2022-10-17T02:39:32.975Z,102753.04
2022-10-17T02:42:06.546Z,102759.51
2022-10-17T02:44:37.925Z,102764.09
2022-10-17T02:47:20.937Z,102768.86
2022-10-17T02:49:52.896Z,102766.13
2022-10-17T02:52:30.125Z,102761.76
2022-10-17T02:55:14.371Z,102765.52
2022-10-17T02:57:48.648Z,102768.95
2022-10-17T03:00:17.987Z,102769.18
2022-10-17T03:02:50.873Z,102768.32
2022-10-17T03:05:29.078Z,102770.34
2022-10-17T03:07:57.608Z,102768.88
2022-10-17T03:10:26.418Z,102766.89
2022-10-17T03:12:56.136Z,102768.90
2022-10-17T03:15:25.138Z,102769.54
2022-10-17T03:17:53.648Z,102770.88
2022-10-17T03:20:22.139Z,102767.27
2022-10-17T03:22:51.200Z,102768.86
2022-10-17T03:25:20.276Z,102773.98
2022-10-17T03:27:48.988Z,102779.58
2022-10-17T03:30:17.639Z,102787.17
2022-10-17T03:32:46.602Z,102785.92
2022-10-17T03:35:15.275Z,102787.30
2022-10-17T03:37:46.175Z,102791.39
2022-10-17T03:40:14.897Z,102797.39
2022-10-17T03:42:43.673Z,102800.57
2022-10-17T03:45:12.535Z,102801.28
2022-10-17T03:47:41.057Z,102799.61
2022-10-17T03:50:09.712Z,102800.88
2022-10-17T03:52:39.065Z,102800.17
2022-10-17T03:55:08.064Z,102799.72
2022-10-17T03:57:37.689Z,102795.39
2022-10-17T04:00:08.556Z,102799.70
2022-10-17T04:02:42.526Z,102803.73
2022-10-17T04:05:13.944Z,102804.52
2022-10-17T04:07:42.707Z,102811.14
2022-10-17T04:10:13.370Z,102811.54
2022-10-17T04:12:41.928Z,102811.02
2022-10-17T04:15:11.043Z,102810.39
2022-10-17T04:17:39.642Z,102807.92
2022-10-17T04:20:08.768Z,102809.45
2022-10-17T04:22:37.424Z,102809.23
2022-10-17T04:25:06.473Z,102813.61
2022-10-17T04:27:37.541Z,102813.23
2022-10-17T04:30:06.521Z,102814.10
2022-10-17T04:32:39.222Z,102816.92
2022-10-17T04:35:14.678Z,102819.23
2022-10-17T04:37:46.880Z,102823.27
2022-10-17T04:40:19.261Z,102822.58
2022-10-17T04:42:47.949Z,102821.88
2022-10-17T04:45:19.582Z,102824.84
2022-10-17T04:47:48.616Z,102828.08
2022-10-17T04:50:17.156Z,102829.79
2022-10-17T04:53:01.854Z,102831.80
2022-10-17T04:55:30.715Z,102831.38
2022-10-17T04:57:59.283Z,102833.21
2022-10-17T05:00:27.803Z,102837.74
2022-10-17T05:03:07.141Z,102839.41
2022-10-17T05:05:42.692Z,102838.81
2022-10-17T05:08:12.336Z,102842.20
2022-10-17T05:10:43.878Z,102846.38
2022-10-17T05:13:13.094Z,102850.16
2022-10-17T05:15:41.943Z,102850.86
2022-10-17T05:18:10.367Z,102855.34
2022-10-17T05:20:38.934Z,102858.10
2022-10-17T05:23:08.003Z,102858.55
2022-10-17T05:25:39.617Z,102863.51
2022-10-17T05:28:08.112Z,102872.19
2022-10-17T05:30:37.752Z,102876.41
2022-10-17T05:33:07.669Z,102882.33
2022-10-17T05:35:36.866Z,102887.81
2022-10-17T05:38:05.467Z,102891.37
2022-10-17T05:40:34.909Z,102893.30
2022-10-17T05:43:04.575Z,102897.96
2022-10-17T05:45:33.377Z,102901.96
2022-10-17T05:48:02.289Z,102909.88
2022-10-17T05:50:30.853Z,102912.45
2022-10-17T05:53:10.230Z,102910.44
2022-10-17T05:55:42.413Z,102913.99
2022-10-17T05:58:17.695Z,102917.53
2022-10-17T06:00:52.298Z,102919.68
2022-10-17T06:03:20.780Z,102918.96
2022-10-17T06:05:49.619Z,102919.62
2022-10-17T06:08:18.440Z,102920.86
2022-10-17T06:10:51.157Z,102926.83
2022-10-17T06:13:20.481Z,102927.31
2022-10-17T06:15:52.075Z,102931.77
2022-10-17T06:18:20.931Z,102934.40
2022-10-17T06:20:49.697Z,102936.71
2022-10-17T06:23:20.024Z,102939.88
2022-10-17T06:26:04.520Z,102939.52
2022-10-17T06:28:33.835Z,102940.21
2022-10-17T06:31:10.124Z,102945.14
2022-10-17T06:33:38.802Z,102946.28
2022-10-17T06:36:11.541Z,102949.17
2022-10-17T06:38:40.677Z,102953.77
2022-10-17T06:41:19.173Z,102960.68
2022-10-17T06:43:48.377Z,102961.90
2022-10-17T06:46:46.693Z,102967.73
2022-10-17T06:49:17.817Z,102969.39
2022-10-17T06:51:52.036Z,102970.01
2022-10-17T06:54:24.515Z,102969.81
2022-10-17T06:57:08.467Z,102966.92
2022-10-17T06:59:53.678Z,102970.13
2022-10-17T07:02:27.722Z,102969.41
2022-10-17T07:04:58.318Z,102966.29
2022-10-17T07:07:27.117Z,102967.27
2022-10-17T07:09:55.962Z,102968.88
2022-10-17T07:12:24.993Z,102970.14
2022-10-17T07:14:53.471Z,102970.64
2022-10-17T07:17:21.969Z,102970.30
2022-10-17T07:19:50.998Z,102971.20
2022-10-17T07:22:19.776Z,102967.34
2022-10-17T07:27:29.631Z,102969.76
2022-10-17T07:29:58.204Z,102966.99
2022-10-17T07:32:47.859Z,102965.95
2022-10-17T07:35:16.322Z,102965.53
2022-10-17T07:37:44.838Z,102965.33
2022-10-17T07:40:15.909Z,102962.00
2022-10-17T07:42:44.630Z,102966.38
2022-10-17T07:45:15.957Z,102968.60
2022-10-17T07:47:44.822Z,102960.84
2022-10-17T07:50:20.413Z,102959.86
2022-10-17T07:52:48.864Z,102959.77
2022-10-17T07:55:17.390Z,102961.64
2022-10-17T07:57:45.921Z,102964.38
2022-10-17T08:00:14.652Z,102965.31
2022-10-17T08:02:43.301Z,102966.11
2022-10-17T08:05:11.883Z,102965.86
2022-10-17T08:07:41.636Z,102964.55
2022-10-17T08:10:13.095Z,102960.08
2022-10-17T08:12:41.907Z,102961.33
2022-10-17T08:15:11.250Z,102959.50
2022-10-17T08:17:40.354Z,102959.45
2022-10-17T08:20:09.500Z,102952.20
2022-10-17T08:22:37.949Z,102954.06
2022-10-17T08:25:07.165Z,102951.21
2022-10-17T08:27:36.509Z,102950.91
2022-10-17T08:30:05.395Z,102951.48
2022-10-17T08:32:33.980Z,102952.10
2022-10-17T08:35:02.742Z,102949.84
2022-10-17T08:37:32.842Z,102947.85
2022-10-17T08:40:01.879Z,102948.88
2022-10-17T08:42:39.248Z,102946.70
2022-10-17T08:45:21.315Z,102944.69
2022-10-17T08:47:54.687Z,102944.17
2022-10-17T08:50:41.733Z,102941.90
2022-10-17T08:53:31.867Z,102939.21
2022-10-17T08:56:11.955Z,102932.17
2022-10-17T08:58:43.764Z,102931.20
2022-10-17T09:01:41.452Z,102928.83
2022-10-17T09:04:34.373Z,102929.05
2022-10-17T09:07:24.003Z,102930.29
2022-10-17T09:10:17.358Z,102932.88
2022-10-17T09:13:05.331Z,102933.84
2022-10-17T09:15:57.711Z,102932.35
2022-10-17T09:18:43.328Z,102929.27
2022-10-17T09:21:27.761Z,102931.56
2022-10-17T09:24:09.381Z,102933.61
2022-10-17T09:26:40.740Z,102931.61
2022-10-17T09:29:27.707Z,102929.46
2022-10-17T09:32:11.542Z,102931.00
2022-10-17T09:34:40.030Z,102931.96
2022-10-17T09:37:14.761Z,102930.79
2022-10-17T09:39:44.443Z,102928.19
2022-10-17T09:42:17.524Z,102924.17
2022-10-17T09:44:56.124Z,102921.17
2022-10-17T09:47:35.099Z,102920.13
2022-10-17T09:50:04.389Z,102916.63
2022-10-17T09:52:41.260Z,102915.61
2022-10-17T09:55:20.567Z,102907.89
2022-10-17T09:58:09.750Z,102908.19
2022-10-17T10:00:41.904Z,102903.56
2022-10-17T10:03:13.432Z,102899.17
2022-10-17T10:05:43.627Z,102896.37
2022-10-17T10:08:23.640Z,102897.95
2022-10-17T10:11:03.703Z,102897.06
2022-10-17T10:13:34.892Z,102896.92
2022-10-17T10:16:22.406Z,102899.09
2022-10-17T10:18:52.232Z,102900.84
2022-10-17T10:21:23.970Z,102899.95
2022-10-17T10:24:13.593Z,102897.50
2022-10-17T10:26:47.469Z,102891.50
2022-10-17T10:29:41.540Z,102888.49
2022-10-17T10:32:29.458Z,102885.14
2022-10-17T10:35:00.547Z,102885.50
2022-10-17T10:37:42.520Z,102883.38
2022-10-17T10:40:18.837Z,102875.61
2022-10-17T10:42:50.613Z,102874.37
2022-10-17T10:45:46.439Z,102874.00
2022-10-17T10:48:24.716Z,102873.30
2022-10-17T10:50:56.134Z,102870.30
2022-10-17T10:53:47.845Z,102872.77
2022-10-17T10:56:35.391Z,102872.26
2022-10-17T10:59:13.142Z,102875.11
2022-10-17T11:01:47.535Z,102873.34
2022-10-17T11:04:37.961Z,102869.48
2022-10-17T11:07:16.939Z,102865.96
2022-10-17T11:10:08.385Z,102869.13
2022-10-17T11:12:42.093Z,102869.12
2022-10-17T11:15:34.254Z,102864.89
2022-10-17T11:18:08.850Z,102862.77
2022-10-17T11:20:51.880Z,102858.37
2022-10-17T11:23:38.943Z,102855.73
2022-10-17T11:26:16.289Z,102852.38
2022-10-17T11:28:44.820Z,102849.01
2022-10-17T11:31:16.134Z,102847.04
2022-10-17T11:33:47.376Z,102844.06
2022-10-17T11:36:18.528Z,102838.94
2022-10-17T11:38:55.923Z,102838.93
2022-10-17T11:41:55.423Z,102840.16
2022-10-17T11:44:34.433Z,102837.35
2022-10-17T11:47:32.042Z,102835.95
2022-10-17T11:53:10.256Z,102834.55
2022-10-17T11:55:39.578Z,102837.55
2022-10-17T11:58:36.580Z,102835.59
2022-10-17T12:01:34.717Z,102833.48
2022-10-17T12:04:21.494Z,102832.08
2022-10-17T12:07:15.953Z,102831.38
2022-10-17T12:09:57.322Z,102829.44
2022-10-17T12:12:27.451Z,102830.48
2022-10-17T12:15:20.949Z,102825.73
2022-10-17T12:17:59.415Z,102826.08
2022-10-17T12:20:29.242Z,102828.88
2022-10-17T12:23:06.776Z,102827.46
2022-10-17T12:28:15.309Z,102828.18
2022-10-17T12:31:33.653Z,102831.34
2022-10-17T12:34:04.595Z,102830.48
2022-10-17T12:36:33.371Z,102833.11
2022-10-17T12:39:01.938Z,102833.45
2022-10-17T12:41:40.108Z,102831.34
2022-10-17T12:44:15.184Z,102834.70
2022-10-17T12:47:05.808Z,102837.67
2022-10-17T12:49:43.904Z,102835.73
2022-10-17T12:52:17.595Z,102832.58
2022-10-17T12:55:00.397Z,102832.23
2022-10-17T12:57:47.343Z,102831.86
2022-10-17T13:00:37.436Z,102831.69
2022-10-17T13:03:12.348Z,102832.20
2022-10-17T13:05:53.003Z,102833.80
2022-10-17T13:08:26.041Z,102835.38
2022-10-17T13:10:56.385Z,102835.71
2022-10-17T13:13:40.571Z,102835.19
2022-10-17T13:16:09.598Z,102834.66
2022-10-17T13:18:38.157Z,102832.90
2022-10-17T13:21:16.779Z,102831.83
2022-10-17T13:23:47.830Z,102832.35
2022-10-17T13:26:25.979Z,102834.10
2022-10-17T13:29:03.116Z,102834.44
2022-10-17T13:31:35.714Z,102836.39
2022-10-17T13:34:06.999Z,102834.98
2022-10-17T13:36:36.099Z,102833.40
2022-10-17T13:39:12.468Z,102837.28
2022-10-17T13:41:43.603Z,102834.29
2022-10-17T13:44:18.263Z,102834.45
2022-10-17T13:46:47.390Z,102836.91
2022-10-17T13:49:19.080Z,102839.73
2022-10-17T13:51:51.148Z,102840.59
2022-10-17T13:54:40.523Z,102841.66
2022-10-17T13:57:35.947Z,102843.23
2022-10-17T14:00:12.407Z,102841.99
2022-10-17T14:02:41.783Z,102841.30
2022-10-17T14:05:18.290Z,102841.98
2022-10-17T14:08:11.769Z,102845.48
2022-10-17T14:10:43.235Z,102839.51
2022-10-17T14:13:36.164Z,102839.67
2022-10-17T14:16:05.207Z,102837.38
2022-10-17T14:18:38.171Z,102837.90
2022-10-17T14:24:27.050Z,102833.48
2022-10-17T14:26:59.764Z,102829.96
2022-10-17T14:29:32.330Z,102826.95
2022-10-17T14:32:08.759Z,102823.92
2022-10-17T14:34:40.859Z,102828.14
2022-10-17T14:37:20.353Z,102830.23
2022-10-17T14:39:52.555Z,102827.95
2022-10-17T14:42:23.078Z,102827.58
2022-10-17T14:44:53.931Z,102829.67
2022-10-17T14:47:44.030Z,102831.24
2022-10-17T14:50:12.964Z,102833.68
2022-10-17T14:52:43.336Z,102835.25
2022-10-17T14:55:26.066Z,102833.30
2022-10-17T14:57:54.898Z,102831.69
2022-10-17T15:00:24.411Z,102832.89
2022-10-17T15:02:55.307Z,102833.20
2022-10-17T15:05:25.173Z,102830.37
2022-10-17T15:07:54.127Z,102827.17
2022-10-17T15:10:32.984Z,102826.09
2022-10-17T15:15:52.460Z,102831.98
2022-10-17T15:18:21.042Z,102838.45
2022-10-17T15:20:55.375Z,102839.45
2022-10-17T15:23:33.375Z,102839.77
2022-10-17T15:26:02.196Z,102844.63
2022-10-17T15:28:30.807Z,102846.50
2022-10-17T15:30:59.364Z,102846.07
2022-10-17T15:33:28.009Z,102846.02
2022-10-17T15:38:29.912Z,102853.48
2022-10-17T15:40:58.330Z,102855.88
2022-10-17T15:43:26.855Z,102856.88
2022-10-17T15:45:55.402Z,102851.73
2022-10-17T15:48:31.171Z,102855.20
2022-10-17T15:50:59.773Z,102856.36
2022-10-17T15:53:28.295Z,102857.53
2022-10-17T15:55:56.873Z,102859.56
2022-10-17T15:58:28.474Z,102863.37
2022-10-17T16:00:56.995Z,102867.69
2022-10-17T16:03:25.755Z,102869.38
2022-10-17T16:05:54.168Z,102874.04
2022-10-17T16:08:22.719Z,102877.11
2022-10-17T16:10:52.290Z,102877.23
2022-10-17T16:13:23.790Z,102882.23
2022-10-17T16:15:52.758Z,102885.00
2022-10-17T16:18:21.424Z,102887.18
2022-10-17T16:20:50.199Z,102888.67
2022-10-17T16:23:18.903Z,102889.15
2022-10-17T16:25:47.463Z,102889.94
2022-10-17T16:28:15.966Z,102896.02
2022-10-17T16:30:46.437Z,102896.64
2022-10-17T16:33:15.230Z,102901.66
2022-10-17T16:35:43.962Z,102902.65
2022-10-17T16:38:13.074Z,102905.91
2022-10-17T16:40:41.878Z,102906.38
2022-10-17T16:43:13.859Z,102906.83
2022-10-17T16:45:42.413Z,102901.16
2022-10-17T16:48:11.046Z,102905.65
2022-10-17T16:50:40.464Z,102903.66
2022-10-17T16:53:09.220Z,102901.30
2022-10-17T16:55:38.376Z,102899.48
2022-10-17T16:58:06.812Z,102900.31
2022-10-17T17:00:35.402Z,102900.75
2022-10-17T17:03:04.212Z,102904.72
2022-10-17T17:05:32.877Z,102905.88
2022-10-17T17:08:03.647Z,102904.06
2022-10-17T17:10:32.196Z,102905.05
2022-10-17T17:13:01.923Z,102910.41
2022-10-17T17:15:30.880Z,102911.04
2022-10-17T17:18:04.855Z,102910.78
2022-10-17T17:20:35.061Z,102911.05
2022-10-17T17:23:03.569Z,102907.84
2022-10-17T17:25:34.688Z,102904.98
2022-10-17T17:28:04.171Z,102903.66
2022-10-17T17:30:36.155Z,102902.02
2022-10-17T17:33:04.659Z,102900.73
2022-10-17T17:35:33.121Z,102902.42
2022-10-17T17:38:03.245Z,102906.39
2022-10-17T17:40:34.797Z,102902.84
2022-10-17T17:43:03.470Z,102903.64
2022-10-17T17:45:32.025Z,102903.58
2022-10-17T17:48:00.740Z,102906.30
2022-10-17T17:50:29.508Z,102906.40
2022-10-17T17:52:57.942Z,102909.83
2022-10-17T17:55:26.492Z,102910.45
2022-10-17T17:57:54.970Z,102910.39
2022-10-17T18:00:23.556Z,102910.14
2022-10-17T18:02:52.271Z,102908.33
2022-10-17T18:05:20.838Z,102912.98
2022-10-17T18:07:49.500Z,102910.98
2022-10-17T18:10:17.979Z,102913.35
2022-10-17T18:12:46.422Z,102911.55
2022-10-17T18:15:15.183Z,102913.92
2022-10-17T18:17:43.689Z,102914.18
2022-10-17T18:20:12.671Z,102913.21
2022-10-17T18:22:41.366Z,102915.09
2022-10-17T18:25:10.117Z,102911.69
2022-10-17T18:27:38.700Z,102919.83
2022-10-17T18:30:08.732Z,102935.64
2022-10-17T18:32:37.347Z,102941.29
2022-10-17T18:35:06.250Z,102943.52
2022-10-17T18:37:34.989Z,102945.38
2022-10-17T18:40:03.818Z,102947.45
2022-10-17T18:42:32.584Z,102946.73
2022-10-17T18:45:01.194Z,102945.48
2022-10-17T18:47:30.387Z,102951.23
2022-10-17T18:49:58.900Z,102953.84
2022-10-17T18:52:27.314Z,102955.02
2022-10-17T18:54:55.995Z,102954.48
2022-10-17T18:57:26.362Z,102951.11
2022-10-17T18:59:54.858Z,102951.79
2022-10-17T19:02:23.904Z,102956.31
2022-10-17T19:04:53.617Z,102953.48
2022-10-17T19:07:22.081Z,102952.56
2022-10-17T19:09:50.629Z,102950.77
2022-10-17T19:12:19.097Z,102954.77
2022-10-17T19:14:50.180Z,102957.50
2022-10-17T19:17:19.565Z,102957.80
2022-10-17T19:19:50.535Z,102957.21
2022-10-17T19:22:19.475Z,102964.17
2022-10-17T19:24:48.039Z,102967.09
2022-10-17T19:27:16.468Z,102965.77
2022-10-17T19:29:45.066Z,102971.68
2022-10-17T19:32:16.743Z,102970.44
2022-10-17T19:34:47.882Z,102971.79
2022-10-17T19:37:16.277Z,102970.04
2022-10-17T19:39:44.952Z,102973.83
2022-10-17T19:42:13.455Z,102975.38
2022-10-17T19:44:42.088Z,102973.62
2022-10-17T19:47:10.668Z,102974.96
2022-10-17T19:49:39.339Z,102974.73
2022-10-17T19:52:07.907Z,102975.06
2022-10-17T19:54:36.454Z,102978.34
2022-10-17T19:57:09.515Z,102979.69
2022-10-17T19:59:39.136Z,102978.98
2022-10-17T20:02:07.699Z,102977.90
2022-10-17T20:04:37.565Z,102982.77
2022-10-17T20:07:10.658Z,102984.64
2022-10-17T20:09:39.300Z,102981.45
2022-10-17T20:12:07.802Z,102984.54
2022-10-17T20:14:40.873Z,102984.83
2022-10-17T20:17:09.672Z,102989.82
2022-10-17T20:19:38.177Z,102988.89
2022-10-17T20:22:06.685Z,102988.70
2022-10-17T20:24:35.181Z,102989.70
2022-10-17T20:27:03.660Z,102988.59
2022-10-17T20:29:32.256Z,102987.11
2022-10-17T20:32:01.252Z,102990.18
2022-10-17T20:34:34.880Z,102991.28
2022-10-17T20:37:03.420Z,102990.45
2022-10-17T20:39:31.936Z,102990.10
2022-10-17T20:42:00.465Z,102994.66
2022-10-17T20:44:29.018Z,102994.73
2022-10-17T20:47:02.313Z,102988.91
2022-10-17T20:49:31.554Z,102989.72
2022-10-17T20:52:01.021Z,102987.20
2022-10-17T20:54:29.940Z,102992.34
2022-10-17T20:57:01.215Z,102992.90
2022-10-17T20:59:35.378Z,102995.39
2022-10-17T21:02:05.538Z,102996.62
2022-10-17T21:04:45.945Z,102994.86
2022-10-17T21:07:15.744Z,102995.52
2022-10-17T21:09:45.608Z,102996.17
2022-10-17T21:12:21.700Z,102997.30
2022-10-17T21:15:00.137Z,102993.50
2022-10-17T21:17:28.627Z,102995.50
2022-10-17T21:19:57.194Z,102995.89
2022-10-17T21:22:25.723Z,102992.29
2022-10-17T21:24:54.236Z,102990.59
2022-10-17T21:27:22.816Z,102988.03
2022-10-17T21:29:52.289Z,102987.59
2022-10-17T21:32:40.119Z,102985.18
2022-10-17T21:35:09.464Z,102983.70
2022-10-17T21:37:38.035Z,102978.73
2022-10-17T21:40:07.004Z,102976.45
2022-10-17T21:42:35.495Z,102976.50
2022-10-17T21:45:10.593Z,102977.08
2022-10-17T21:47:54.985Z,102978.70
2022-10-17T21:50:32.633Z,102975.95
2022-10-17T21:53:00.993Z,102977.75
2022-10-17T21:55:29.527Z,102977.46
2022-10-17T21:57:58.024Z,102978.92
2022-10-17T22:00:26.504Z,102979.14
2022-10-17T22:02:55.034Z,102980.61
2022-10-17T22:05:23.605Z,102981.18
2022-10-17T22:07:52.081Z,102978.27
2022-10-17T22:10:20.526Z,102978.14
2022-10-17T22:12:48.984Z,102979.25
2022-10-17T22:15:17.506Z,102981.56
2022-10-17T22:17:45.954Z,102985.13
2022-10-17T22:20:14.609Z,102987.80
2022-10-17T22:22:43.044Z,102985.05
2022-10-17T22:25:11.590Z,102985.94
2022-10-17T22:27:40.154Z,102988.30
2022-10-17T22:30:09.253Z,102993.23
2022-10-17T22:32:37.743Z,102996.94
2022-10-17T22:35:06.709Z,102990.03
2022-10-17T22:37:35.220Z,102994.50
2022-10-17T22:40:05.614Z,102995.63
2022-10-17T22:42:34.852Z,102995.33
2022-10-17T22:45:04.069Z,102997.40
2022-10-17T22:47:32.793Z,102997.45
2022-10-17T22:50:01.600Z,102994.75
2022-10-17T22:52:30.361Z,102989.61
2022-10-17T22:54:59.319Z,102985.92
2022-10-17T22:57:27.894Z,102988.39
2022-10-17T22:59:56.278Z,102983.38
2022-10-17T23:02:24.778Z,102983.40
2022-10-17T23:04:53.297Z,102986.92
2022-10-17T23:07:22.047Z,102980.89
2022-10-17T23:09:50.972Z,102982.86
2022-10-17T23:12:19.932Z,102980.84
2022-10-17T23:14:48.525Z,102979.88
2022-10-17T23:17:17.816Z,102975.41
2022-10-17T23:19:46.301Z,102979.98
2022-10-17T23:22:14.720Z,102978.59
2022-10-17T23:24:43.174Z,102974.07
2022-10-17T23:27:11.795Z,102971.81
2022-10-17T23:29:40.371Z,102967.75
2022-10-17T23:32:08.751Z,102967.16
2022-10-17T23:34:37.276Z,102969.35
2022-10-17T23:37:05.723Z,102968.23
2022-10-17T23:39:34.235Z,102965.17
2022-10-17T23:42:02.840Z,102963.83
2022-10-17T23:44:31.381Z,102960.00
2022-10-17T23:46:59.872Z,102956.71
2022-10-17T23:49:28.315Z,102959.52
2022-10-17T23:51:56.810Z,102954.86
2022-10-17T23:54:25.400Z,102954.33
2022-10-17T23:56:53.819Z,102954.54
2022-10-17T23:59:22.291Z,102950.89
